Anahuac, Texas
Current Conditions -  °F | °C
As of 12:50 AM on Thursday 23 Oct 2014 (Local Time) from KEFD Reporting Station
Scattered Clouds Scattered Clouds  
Wind Chill: 66°   Ceiling: Unl
Heat Index: 66°   Visibility: 10mi
Dew Point: 61°   Wind: 5mph
Humidity: 83%   Direction: 40°NE
Pressure: 30.08"   Gusts: NA
Location:  29.77°N, 94.68°W
Report Text: KEFD 230550Z 04004KT 10SM FEW040 SCT250 19/16 A3008
Loading
Personal Weather Stations






























Interactive Weather Map
Tropical Storm Tracking
New forecast layout! Learn more

10-Day Weather Forecast

Advertisements
Track Severe Weather on mobile